Time;durP1;ratioP1;P1;durP2;ratioP2;P2;SDS_P1;SDS_P2;PMS_P1;PMS_P2;Temp;Humidity;BMP_temperature;BMP_pressure;BME280_temperature;BME280_humidity;BME280_pressure;Samples;Min_cycle;Max_cycle;Signal;HPM_P1;HPM_P2
2022/11/12 00:00:53;;;;;;;2.20;1.53;;;5.10;99.90;;;;;;5071753;28;20442;-51
2022/11/12 00:03:20;;;;;;;3.07;1.40;;;5.20;99.90;;;;;;5071351;28;20484;-51
2022/11/12 00:05:49;;;;;;;1.53;1.00;;;5.30;99.90;;;;;;5071696;28;20475;-52
2022/11/12 00:08:16;;;;;;;1.50;1.00;;;5.20;99.90;;;;;;5071215;28;21065;-51
2022/11/12 00:10:43;;;;;;;1.50;0.93;;;5.10;99.90;;;;;;5071752;28;20832;-51
2022/11/12 00:13:10;;;;;;;1.60;1.20;;;5.40;99.90;;;;;;5071227;28;20846;-51
2022/11/12 00:15:39;;;;;;;1.07;0.83;;;5.60;99.90;;;;;;5071326;28;21033;-51
2022/11/12 00:18:07;;;;;;;1.37;0.90;;;5.70;99.90;;;;;;5071129;28;21003;-52
2022/11/12 00:20:34;;;;;;;1.80;1.40;;;5.70;99.90;;;;;;5070971;28;20447;-52
2022/11/12 00:23:01;;;;;;;1.33;1.00;;;5.80;99.90;;;;;;5071190;28;20451;-51
2022/11/12 00:25:28;;;;;;;1.10;0.73;;;5.90;99.90;;;;;;5071263;28;20837;-51
2022/11/12 00:28:00;;;;;;;1.43;0.97;;;5.90;99.90;;;;;;5071240;28;20880;-51
2022/11/12 00:30:27;;;;;;;1.53;0.90;;;5.90;99.90;;;;;;5071199;28;20532;-52
2022/11/12 00:32:55;;;;;;;1.77;0.90;;;5.80;99.90;;;;;;5071071;28;20523;-52
2022/11/12 00:35:22;;;;;;;1.00;0.60;;;5.70;99.90;;;;;;5071049;28;20808;-51
2022/11/12 00:37:53;;;;;;;1.30;1.10;;;5.50;99.90;;;;;;5071180;28;20471;-51
2022/11/12 00:40:20;;;;;;;1.73;1.30;;;5.60;99.90;;;;;;5071398;28;20446;-51
2022/11/12 00:42:47;;;;;;;1.90;0.90;;;5.70;99.90;;;;;;5070334;28;20850;-51
2022/11/12 00:45:14;;;;;;;1.20;0.80;;;5.80;99.90;;;;;;5071061;28;20468;-52
2022/11/12 00:47:41;;;;;;;1.43;0.87;;;5.70;99.90;;;;;;5070724;28;20540;-51
2022/11/12 00:50:10;;;;;;;2.03;1.00;;;5.80;99.90;;;;;;5071357;28;20463;-50
2022/11/12 00:52:37;;;;;;;1.63;0.97;;;5.60;99.90;;;;;;5071147;28;20819;-51
2022/11/12 00:55:04;;;;;;;2.37;1.33;;;5.50;99.90;;;;;;5070720;28;20929;-51
2022/11/12 00:57:31;;;;;;;2.73;1.40;;;5.40;99.90;;;;;;5070352;28;20495;-51
2022/11/12 00:59:58;;;;;;;3.10;1.67;;;5.50;99.90;;;;;;5070793;28;20447;-50
2022/11/12 01:02:25;;;;;;;2.37;1.23;;;5.50;99.90;;;;;;5071295;28;20447;-51
2022/11/12 01:04:51;;;;;;;1.63;1.10;;;5.60;99.90;;;;;;5070690;28;21014;-51
2022/11/12 01:07:19;;;;;;;2.07;1.10;;;5.60;99.90;;;;;;5071152;28;20447;-51
2022/11/12 01:09:46;;;;;;;7.23;1.87;;;5.70;99.90;;;;;;5070905;28;20451;-50
2022/11/12 01:12:13;;;;;;;1.70;1.30;;;5.70;99.90;;;;;;5070682;28;20961;-51
2022/11/12 01:14:40;;;;;;;1.30;0.90;;;5.70;99.90;;;;;;5070773;28;20439;-51
2022/11/12 01:17:07;;;;;;;2.53;1.13;;;5.70;99.90;;;;;;5071052;28;20480;-51
2022/11/12 01:19:34;;;;;;;4.27;2.40;;;5.50;99.90;;;;;;5070893;28;21066;-51
2022/11/12 01:22:01;;;;;;;2.90;2.50;;;5.40;99.90;;;;;;5070800;28;20520;-51
2022/11/12 01:24:29;;;;;;;2.40;1.83;;;5.30;99.90;;;;;;5070493;28;21017;-51
2022/11/12 01:26:56;;;;;;;3.30;2.03;;;5.00;99.90;;;;;;5070725;28;20928;-51
2022/11/12 01:29:22;;;;;;;1.70;1.40;;;5.10;99.90;;;;;;5070799;28;20471;-52
2022/11/12 01:31:49;;;;;;;2.07;1.50;;;5.30;99.90;;;;;;5071062;28;20537;-51
2022/11/12 01:34:16;;;;;;;1.70;1.00;;;5.30;99.90;;;;;;5070387;28;20521;-51
2022/11/12 01:36:43;;;;;;;4.40;1.03;;;5.30;99.90;;;;;;5070680;28;20458;-52
2022/11/12 01:39:10;;;;;;;1.57;1.30;;;4.50;99.90;;;;;;5070564;28;20473;-51
2022/11/12 01:41:40;;;;;;;2.87;1.20;;;4.40;99.90;;;;;;5070586;28;20538;-51
2022/11/12 01:44:15;;;;;;;1.57;1.40;;;4.40;99.90;;;;;;5070570;28;20452;-51
2022/11/12 01:46:49;;;;;;;1.40;0.93;;;4.70;99.90;;;;;;5070374;28;20479;-51
2022/11/12 01:49:20;;;;;;;1.90;1.30;;;5.00;99.90;;;;;;5070336;28;20556;-51
2022/11/12 01:51:51;;;;;;;1.70;1.40;;;5.00;99.90;;;;;;5070182;28;20883;-51
2022/11/12 01:54:21;;;;;;;1.63;1.20;;;4.90;99.90;;;;;;5071073;28;20524;-51
2022/11/12 01:56:51;;;;;;;3.73;1.13;;;4.80;99.90;;;;;;5073718;28;20536;-52
2022/11/12 01:59:23;;;;;;;1.57;1.20;;;4.90;99.90;;;;;;5073981;28;20489;-51
2022/11/12 02:01:50;;;;;;;3.70;2.33;;;5.10;99.90;;;;;;5073829;28;20840;-51
2022/11/12 02:04:17;;;;;;;3.43;2.20;;;5.20;99.90;;;;;;5073617;28;20817;-51
2022/11/12 02:06:45;;;;;;;9.90;3.03;;;5.20;99.90;;;;;;5073646;28;20998;-51
2022/11/12 02:09:13;;;;;;;1.93;1.70;;;5.30;99.90;;;;;;5073769;28;20547;-51
2022/11/12 02:11:40;;;;;;;1.50;1.20;;;5.50;99.90;;;;;;5073560;28;20522;-51
2022/11/12 02:14:08;;;;;;;1.97;1.00;;;5.50;99.90;;;;;;5073309;28;20445;-51
2022/11/12 02:16:37;;;;;;;2.43;1.33;;;5.50;99.90;;;;;;5073563;28;20509;-51
2022/11/12 02:19:06;;;;;;;2.83;1.20;;;5.50;99.90;;;;;;5146506;22;20584;-52
2022/11/12 02:21:35;;;;;;;1.53;1.10;;;5.60;99.90;;;;;;5098885;28;21004;-52
2022/11/12 02:24:04;;;;;;;1.67;0.90;;;5.70;99.90;;;;;;5098048;28;20793;-51
2022/11/12 02:26:35;;;;;;;1.30;0.93;;;5.70;99.90;;;;;;5098761;28;20522;-52
2022/11/12 02:29:02;;;;;;;4.13;1.00;;;5.70;99.90;;;;;;5099159;28;20494;-52
2022/11/12 02:31:29;;;;;;;2.40;1.23;;;5.70;99.90;;;;;;5098650;28;20485;-52
2022/11/12 02:33:56;;;;;;;1.63;1.03;;;5.70;99.90;;;;;;5099010;28;20529;-51
2022/11/12 02:36:24;;;;;;;1.87;0.90;;;5.50;99.90;;;;;;5098481;28;20503;-51
2022/11/12 02:38:52;;;;;;;2.70;1.17;;;5.50;99.90;;;;;;5098200;28;20463;-51
2022/11/12 02:41:19;;;;;;;1.87;1.00;;;5.30;99.90;;;;;;5098063;28;20529;-54
2022/11/12 02:43:46;;;;;;;1.50;0.90;;;5.00;99.90;;;;;;5096791;28;20535;-53
2022/11/12 02:46:13;;;;;;;1.53;1.10;;;5.20;99.90;;;;;;5096644;28;21073;-52
2022/11/12 02:48:40;;;;;;;4.20;1.20;;;5.30;99.90;;;;;;5097172;28;20558;-52
2022/11/12 02:51:07;;;;;;;1.10;0.70;;;5.40;99.90;;;;;;5097432;28;20526;-51
2022/11/12 02:53:34;;;;;;;1.67;1.30;;;5.60;99.90;;;;;;5097112;28;20442;-53
2022/11/12 02:56:02;;;;;;;2.30;2.10;;;5.60;99.90;;;;;;5096737;28;20795;-51
2022/11/12 02:58:29;;;;;;;3.10;1.70;;;5.60;99.90;;;;;;5093680;28;20553;-52
2022/11/12 03:00:57;;;;;;;1.50;1.33;;;5.60;99.90;;;;;;5093789;28;20514;-52
2022/11/12 03:03:24;;;;;;;1.40;1.20;;;5.50;99.90;;;;;;5095784;28;20491;-51
2022/11/12 03:05:56;;;;;;;1.23;1.07;;;5.50;99.90;;;;;;5096285;28;21075;-52
2022/11/12 03:08:23;;;;;;;1.50;1.03;;;5.50;99.90;;;;;;5097109;28;20463;-51
2022/11/12 03:10:51;;;;;;;2.00;0.80;;;5.50;99.90;;;;;;5097529;28;20474;-51
2022/11/12 03:13:20;;;;;;;1.47;1.00;;;5.50;99.90;;;;;;5096437;28;20987;-51
2022/11/12 03:15:47;;;;;;;1.53;1.13;;;5.60;99.90;;;;;;5096622;28;20480;-51
2022/11/12 03:18:14;;;;;;;2.13;1.13;;;5.40;99.90;;;;;;5096637;28;20507;-51
2022/11/12 03:20:41;;;;;;;2.93;1.43;;;5.10;99.90;;;;;;5096423;28;20479;-52
2022/11/12 03:23:10;;;;;;;2.40;1.30;;;4.80;99.90;;;;;;5095974;28;20967;-53
2022/11/12 03:25:38;;;;;;;1.27;1.00;;;5.00;99.90;;;;;;5096926;28;21024;-51
2022/11/12 03:28:07;;;;;;;1.20;0.90;;;5.20;99.90;;;;;;5097637;28;20527;-52
2022/11/12 03:30:37;;;;;;;1.50;1.03;;;5.20;99.90;;;;;;5098382;28;20439;-51
2022/11/12 03:33:05;;;;;;;1.40;0.90;;;5.30;99.90;;;;;;5097345;28;21033;-51
2022/11/12 03:35:33;;;;;;;1.00;0.80;;;5.30;99.90;;;;;;5097698;28;20867;-51
2022/11/12 03:38:01;;;;;;;1.03;0.83;;;5.30;99.90;;;;;;5097564;28;20552;-51
2022/11/12 03:40:28;;;;;;;1.10;0.70;;;5.40;99.90;;;;;;5097267;28;20991;-51
2022/11/12 03:42:55;;;;;;;1.00;0.70;;;5.40;99.90;;;;;;5096834;28;20442;-52
2022/11/12 03:45:24;;;;;;;2.00;1.00;;;5.30;99.90;;;;;;5096351;28;20493;-51
2022/11/12 03:47:55;;;;;;;0.90;0.50;;;5.30;99.90;;;;;;5096791;28;21310;-52
2022/11/12 03:50:24;;;;;;;1.23;0.67;;;5.20;99.90;;;;;;5097105;28;20534;-53
2022/11/12 03:52:53;;;;;;;1.17;0.73;;;5.20;99.90;;;;;;5097014;28;20530;-52
2022/11/12 03:55:22;;;;;;;1.20;0.70;;;5.10;99.90;;;;;;5097464;28;20514;-52
2022/11/12 03:57:50;;;;;;;1.20;0.83;;;5.20;99.90;;;;;;5097181;28;20491;-51
2022/11/12 04:00:18;;;;;;;0.90;0.70;;;5.30;99.90;;;;;;5097097;28;20439;-52
2022/11/12 04:02:45;;;;;;;1.47;0.80;;;5.30;99.90;;;;;;5096962;28;20443;-51
2022/11/12 04:10:42;;;;;;;1.50;1.10;;;5.20;99.90;;;;;;5097612;28;20419;-51
2022/11/12 04:13:27;;;;;;;1.60;1.10;;;5.30;99.90;;;;;;5096282;28;20530;-52
2022/11/12 04:26:21;;;;;;;1.27;0.70;;;5.10;99.90;;;;;;5097067;28;20570;-51
2022/11/12 04:27:00;;;;;;;1.60;1.10;;;5.10;99.90;;;;;;5097093;28;20852;-51
2022/11/12 04:32:11;;;;;;;2.10;1.30;;;4.70;99.90;;;;;;5097776;28;20421;-52
2022/11/12 04:34:38;;;;;;;1.93;1.57;;;4.40;99.90;;;;;;5096103;28;20470;-51
2022/11/12 04:37:06;;;;;;;1.20;1.03;;;4.50;99.90;;;;;;5096313;28;20440;-53
2022/11/12 04:39:33;;;;;;;1.93;1.10;;;4.70;99.90;;;;;;5096564;28;20486;-51
2022/11/12 04:47:42;;;;;;;2.00;1.07;;;5.10;99.90;;;;;;5059968;28;20530;-51
2022/11/12 04:50:16;;;;;;;3.10;1.10;;;5.20;99.90;;;;;;5097267;28;21016;-51
2022/11/12 04:52:44;;;;;;;6.20;1.73;;;5.10;99.90;;;;;;5096421;28;20478;-56
2022/11/12 04:55:11;;;;;;;1.60;1.00;;;5.10;99.90;;;;;;5096288;28;21003;-51
2022/11/12 04:57:39;;;;;;;1.40;0.97;;;5.20;99.90;;;;;;5096324;28;20864;-51
2022/11/12 05:00:07;;;;;;;3.13;1.80;;;5.20;99.90;;;;;;5096530;28;21012;-51
2022/11/12 05:02:34;;;;;;;1.40;1.10;;;5.20;99.90;;;;;;5097173;28;20466;-51
2022/11/12 05:05:00;;;;;;;1.97;1.07;;;5.20;99.90;;;;;;5096624;28;20442;-51
2022/11/12 05:07:27;;;;;;;1.67;0.80;;;5.30;99.90;;;;;;5098490;28;20479;-49
2022/11/12 05:09:56;;;;;;;1.17;0.80;;;5.20;99.90;;;;;;5098347;28;20534;-49
2022/11/12 05:12:22;;;;;;;1.50;0.70;;;5.10;99.90;;;;;;5098281;28;20475;-48
2022/11/12 05:14:49;;;;;;;1.20;0.80;;;5.00;99.90;;;;;;5098704;28;20475;-49
2022/11/12 05:17:16;;;;;;;2.13;0.80;;;5.10;99.90;;;;;;5097831;28;20472;-49
2022/11/12 05:19:43;;;;;;;1.10;0.80;;;5.10;99.90;;;;;;5098472;28;20545;-49
2022/11/12 05:22:09;;;;;;;1.50;1.03;;;5.10;99.90;;;;;;5098391;28;20541;-49
2022/11/12 05:24:39;;;;;;;1.23;0.60;;;5.20;99.90;;;;;;5098235;28;20463;-48
2022/11/12 05:27:10;;;;;;;1.07;0.60;;;5.00;99.90;;;;;;5097374;28;20937;-50
2022/11/12 05:29:37;;;;;;;1.30;0.83;;;5.10;99.90;;;;;;5100351;28;20490;-49
2022/11/12 05:32:05;;;;;;;2.23;0.70;;;5.00;99.90;;;;;;5099926;28;21038;-51
2022/11/12 05:34:32;;;;;;;1.93;0.80;;;4.70;99.90;;;;;;5099246;28;20477;-51
2022/11/12 05:36:59;;;;;;;1.70;0.73;;;4.80;99.90;;;;;;5100327;28;20518;-51
2022/11/12 05:39:26;;;;;;;19.83;17.83;;;4.90;99.90;;;;;;5100502;28;20463;-51
2022/11/12 05:41:53;;;;;;;57.07;39.23;;;4.90;99.90;;;;;;5100768;28;20784;-52
2022/11/12 05:44:21;;;;;;;35.23;25.87;;;5.00;99.90;;;;;;5100142;28;20539;-51
2022/11/12 05:46:49;;;;;;;25.00;17.67;;;5.00;99.90;;;;;;5094943;28;20573;-50
2022/11/12 05:49:16;;;;;;;33.90;23.07;;;4.90;99.90;;;;;;5095276;28;20467;-50
2022/11/12 05:51:43;;;;;;;17.13;12.13;;;4.90;99.90;;;;;;5096990;28;20536;-50
2022/11/12 05:54:10;;;;;;;9.13;6.60;;;4.90;99.90;;;;;;5098055;28;20528;-50
2022/11/12 05:56:37;;;;;;;5.93;4.80;;;5.00;99.90;;;;;;5098413;28;20483;-50
2022/11/12 05:59:07;;;;;;;10.47;9.53;;;5.00;99.90;;;;;;5099709;28;20488;-50
2022/11/12 06:01:42;;;;;;;5.83;5.30;;;5.00;99.90;;;;;;5099095;28;20774;-53
2022/11/12 06:04:09;;;;;;;4.50;3.80;;;5.00;99.90;;;;;;5099414;28;20447;-51
2022/11/12 06:06:36;;;;;;;2.10;1.57;;;5.00;99.90;;;;;;5099018;28;20565;-51
2022/11/12 06:09:04;;;;;;;2.73;1.40;;;5.00;99.90;;;;;;5100738;28;20462;-50
2022/11/12 06:11:31;;;;;;;1.83;1.17;;;5.00;99.90;;;;;;5100037;28;20869;-52
2022/11/12 06:13:58;;;;;;;2.13;1.30;;;5.00;99.90;;;;;;5098634;28;21085;-50
2022/11/12 06:16:25;;;;;;;2.07;1.23;;;4.60;99.90;;;;;;5098668;28;20443;-51
2022/11/12 06:18:53;;;;;;;2.00;1.60;;;4.70;99.90;;;;;;5098522;28;20561;-50
2022/11/12 06:21:21;;;;;;;3.50;1.50;;;4.70;99.90;;;;;;5098470;28;20814;-50
2022/11/12 06:23:54;;;;;;;2.97;1.87;;;4.70;99.90;;;;;;5098700;28;20542;-50
2022/11/12 06:26:22;;;;;;;1.83;1.53;;;4.90;99.90;;;;;;5099137;28;20477;-50
2022/11/12 06:28:49;;;;;;;2.60;2.03;;;5.00;99.90;;;;;;5098421;28;20499;-50
2022/11/12 06:31:17;;;;;;;5.17;2.47;;;5.00;99.90;;;;;;5099287;28;20999;-50
2022/11/12 06:33:44;;;;;;;2.70;1.90;;;5.00;99.90;;;;;;5099423;28;20474;-52
2022/11/12 06:36:14;;;;;;;5.13;1.70;;;5.10;99.90;;;;;;5098614;28;20435;-50
2022/11/12 06:38:42;;;;;;;2.07;1.43;;;5.10;99.90;;;;;;5099238;28;20558;-50
2022/11/12 06:41:10;;;;;;;1.60;1.30;;;4.80;99.90;;;;;;5097620;28;20448;-51
2022/11/12 06:43:38;;;;;;;1.47;1.03;;;5.00;99.90;;;;;;5098090;28;20442;-50
2022/11/12 06:46:07;;;;;;;1.40;1.00;;;4.90;99.90;;;;;;5098728;28;20507;-52
2022/11/12 06:48:34;;;;;;;1.60;1.10;;;5.00;99.90;;;;;;5098877;28;20490;-50
2022/11/12 06:51:07;;;;;;;6.27;1.50;;;4.90;99.90;;;;;;5098140;28;21051;-50
2022/11/12 06:53:35;;;;;;;2.10;1.50;;;4.80;99.90;;;;;;5097614;28;20474;-50
2022/11/12 06:56:02;;;;;;;2.17;1.97;;;4.90;99.90;;;;;;5098132;28;20442;-50
2022/11/12 06:58:30;;;;;;;1.90;1.60;;;5.00;99.90;;;;;;5098027;28;20485;-52
2022/11/12 07:00:57;;;;;;;1.50;1.20;;;4.60;99.90;;;;;;5097545;28;20443;-52
2022/11/12 07:03:24;;;;;;;2.63;1.47;;;4.50;99.90;;;;;;5097627;28;20535;-51
2022/11/12 07:05:50;;;;;;;2.13;1.40;;;4.60;99.90;;;;;;5097468;28;20526;-50
2022/11/12 07:08:17;;;;;;;2.13;1.60;;;4.90;99.90;;;;;;5097830;28;20842;-50
2022/11/12 07:10:46;;;;;;;2.17;1.70;;;5.00;99.90;;;;;;5098663;28;20990;-51
2022/11/12 07:13:12;;;;;;;2.77;1.90;;;4.80;99.90;;;;;;5097573;28;20503;-51
2022/11/12 07:15:39;;;;;;;2.37;2.00;;;4.80;99.90;;;;;;5097986;28;20473;-50
2022/11/12 07:18:06;;;;;;;2.30;2.10;;;5.00;99.90;;;;;;5098072;28;20467;-50
2022/11/12 07:20:34;;;;;;;3.47;2.27;;;5.10;99.90;;;;;;5098096;28;20497;-51
2022/11/12 07:23:01;;;;;;;2.90;2.40;;;5.20;99.90;;;;;;5096885;28;21008;-50
2022/11/12 07:25:28;;;;;;;3.00;2.50;;;5.10;99.90;;;;;;5096771;28;20561;-50
2022/11/12 07:27:56;;;;;;;3.10;2.57;;;5.10;99.90;;;;;;5096528;28;20584;-51
2022/11/12 07:30:23;;;;;;;3.40;3.10;;;5.00;99.90;;;;;;5096569;28;20531;-51
2022/11/12 07:32:50;;;;;;;4.37;3.97;;;4.90;99.90;;;;;;5096378;28;20491;-51
2022/11/12 07:35:17;;;;;;;5.23;4.70;;;5.00;99.90;;;;;;5096387;28;20943;-51
2022/11/12 07:37:44;;;;;;;6.40;4.27;;;5.00;99.90;;;;;;5096582;28;20499;-52
2022/11/12 07:40:12;;;;;;;4.87;4.37;;;5.10;99.90;;;;;;5097017;28;20474;-51
2022/11/12 07:42:39;;;;;;;4.67;4.20;;;5.30;99.90;;;;;;5097055;28;20518;-52
2022/11/12 07:45:08;;;;;;;4.47;3.67;;;5.40;99.90;;;;;;5096622;28;21005;-51
2022/11/12 07:47:35;;;;;;;4.83;4.40;;;5.40;99.90;;;;;;5095844;28;20995;-52
2022/11/12 07:50:01;;;;;;;5.10;4.60;;;5.10;99.90;;;;;;5096338;28;20444;-51
2022/11/12 07:52:28;;;;;;;5.37;3.47;;;5.20;99.90;;;;;;5096634;28;20450;-51
2022/11/12 07:54:55;;;;;;;5.07;2.80;;;5.30;99.90;;;;;;5096185;28;20478;-52
2022/11/12 07:57:22;;;;;;;20.77;5.73;;;5.40;99.90;;;;;;5096202;28;20471;-51
2022/11/12 07:59:49;;;;;;;4.80;3.20;;;5.50;99.90;;;;;;5095503;28;20477;-51
2022/11/12 08:02:17;;;;;;;7.90;4.80;;;5.60;99.90;;;;;;5095901;28;20443;-52
2022/11/12 08:04:44;;;;;;;5.97;5.40;;;5.60;99.90;;;;;;5095687;28;20502;-51
2022/11/12 08:07:11;;;;;;;6.70;6.20;;;5.70;99.90;;;;;;5096150;28;20559;-51
2022/11/12 08:09:38;;;;;;;6.80;5.20;;;5.70;99.90;;;;;;5095834;28;20551;-53
2022/11/12 08:12:05;;;;;;;5.77;5.23;;;5.70;99.90;;;;;;5095652;28;20473;-53
2022/11/12 08:14:31;;;;;;;5.20;4.70;;;5.70;99.90;;;;;;5096034;28;20527;-51
2022/11/12 08:16:58;;;;;;;4.97;4.57;;;5.80;99.90;;;;;;5095770;28;20988;-53
2022/11/12 08:19:27;;;;;;;71.67;15.43;;;5.70;99.90;;;;;;5096952;28;20483;-50
2022/11/12 08:21:55;;;;;;;5.47;4.53;;;5.80;99.90;;;;;;5095664;28;20442;-51
2022/11/12 08:24:22;;;;;;;4.50;4.07;;;5.80;99.90;;;;;;5095767;28;20546;-51
2022/11/12 08:26:48;;;;;;;21.50;10.60;;;5.80;99.90;;;;;;5095521;28;20514;-51
2022/11/12 08:29:15;;;;;;;54.50;26.80;;;5.90;99.90;;;;;;5094622;28;20910;-51
2022/11/12 08:31:42;;;;;;;17.70;13.30;;;5.80;99.90;;;;;;5095651;28;20506;-51
2022/11/12 08:34:12;;;;;;;16.27;13.40;;;5.90;99.90;;;;;;5092393;28;20470;-53
2022/11/12 08:36:40;;;;;;;16.30;14.53;;;5.70;99.90;;;;;;5091695;28;20529;-51
2022/11/12 08:39:08;;;;;;;14.27;12.47;;;5.50;99.90;;;;;;5092898;28;20467;-52
2022/11/12 08:41:35;;;;;;;12.03;10.80;;;5.40;99.90;;;;;;5093581;28;20445;-51
2022/11/12 08:44:02;;;;;;;11.60;10.40;;;5.40;99.90;;;;;;5094143;28;20452;-52
2022/11/12 08:46:29;;;;;;;14.27;12.93;;;5.50;99.90;;;;;;5093757;28;20443;-51
2022/11/12 08:48:56;;;;;;;15.60;14.00;;;5.60;99.90;;;;;;5094883;28;20521;-53
2022/11/12 08:51:23;;;;;;;16.00;14.00;;;5.70;99.90;;;;;;5095413;28;20526;-51
2022/11/12 08:53:51;;;;;;;16.13;14.17;;;5.70;99.90;;;;;;5094729;28;20519;-51
2022/11/12 08:56:18;;;;;;;19.70;15.90;;;5.80;99.90;;;;;;5095455;28;20527;-51
2022/11/12 08:58:45;;;;;;;21.73;18.17;;;5.90;99.90;;;;;;5094821;28;20501;-51
2022/11/12 09:01:12;;;;;;;23.17;17.10;;;6.00;99.90;;;;;;5095106;28;20475;-51
2022/11/12 09:03:39;;;;;;;17.80;15.87;;;5.90;99.90;;;;;;5096091;28;20867;-51
2022/11/12 09:06:06;;;;;;;16.23;14.60;;;5.70;99.90;;;;;;5099085;28;20502;-52
2022/11/12 09:08:35;;;;;;;14.77;13.13;;;5.80;99.90;;;;;;5099691;28;20483;-53
2022/11/12 09:11:04;;;;;;;14.83;13.20;;;5.90;99.90;;;;;;5099391;28;20474;-52
2022/11/12 09:13:31;;;;;;;19.53;15.87;;;6.00;99.90;;;;;;5098951;28;20522;-51
2022/11/12 09:16:02;;;;;;;18.77;14.73;;;6.10;99.90;;;;;;5098834;28;20447;-52
2022/11/12 09:18:29;;;;;;;15.20;13.60;;;6.10;99.90;;;;;;5099006;28;20982;-51
2022/11/12 09:21:00;;;;;;;13.80;11.87;;;6.20;99.90;;;;;;5098672;28;20474;-53
2022/11/12 09:23:28;;;;;;;14.20;11.80;;;6.30;99.90;;;;;;5098843;28;20470;-51
2022/11/12 09:25:56;;;;;;;10.67;9.73;;;6.30;99.90;;;;;;5099224;28;20518;-51
2022/11/12 09:28:25;;;;;;;10.00;8.97;;;6.40;99.90;;;;;;5098701;28;21018;-52
2022/11/12 09:30:53;;;;;;;10.87;9.80;;;6.40;99.90;;;;;;5098671;28;20445;-52
2022/11/12 09:33:23;;;;;;;10.83;9.63;;;6.50;99.90;;;;;;5098773;28;20627;-52
2022/11/12 09:35:51;;;;;;;10.40;8.83;;;6.60;99.90;;;;;;5098853;28;20446;-51
2022/11/12 09:38:18;;;;;;;8.40;7.60;;;6.60;99.90;;;;;;5098424;28;20490;-52
2022/11/12 09:41:01;;;;;;;7.90;7.13;;;6.70;99.90;;;;;;5097861;28;20508;-53
2022/11/12 09:43:32;;;;;;;7.90;6.77;;;6.70;99.90;;;;;;5097967;28;20441;-53
2022/11/12 09:46:04;;;;;;;12.67;10.43;;;6.80;99.90;;;;;;5098457;28;20447;-52
2022/11/12 09:48:38;;;;;;;13.23;11.10;;;6.80;99.90;;;;;;5098516;28;20562;-52
2022/11/12 09:51:10;;;;;;;7.00;5.67;;;6.90;99.90;;;;;;5097864;28;20435;-52
2022/11/12 09:53:45;;;;;;;5.27;4.53;;;7.00;99.90;;;;;;5098183;28;20854;-51
2022/11/12 09:56:13;;;;;;;3.87;3.53;;;7.00;99.90;;;;;;5097620;28;20533;-53
2022/11/12 09:58:42;;;;;;;6.90;4.20;;;7.10;99.90;;;;;;5098022;28;20472;-53
2022/11/12 10:01:14;;;;;;;4.37;3.83;;;7.10;99.90;;;;;;5098079;28;20443;-53
2022/11/12 10:03:49;;;;;;;6.37;5.03;;;7.10;99.90;;;;;;5097838;28;20960;-52
2022/11/12 10:06:19;;;;;;;17.13;6.73;;;7.20;99.90;;;;;;5096997;28;20446;-52
2022/11/12 10:08:52;;;;;;;20.97;6.10;;;7.40;99.90;;;;;;5096943;28;20487;-52
2022/11/12 10:14:49;;;;;;;11.90;3.70;;;7.50;99.90;;;;;;5096398;28;20922;-52
2022/11/12 10:17:28;;;;;;;2.73;1.97;;;7.50;99.90;;;;;;5097139;28;20537;-53
2022/11/12 10:20:06;;;;;;;3.00;2.70;;;7.40;99.90;;;;;;5096281;28;20562;-52
2022/11/12 10:22:43;;;;;;;5.13;3.33;;;7.40;99.90;;;;;;5096690;28;20463;-50
2022/11/12 10:25:15;;;;;;;4.03;3.40;;;7.60;99.90;;;;;;5095961;28;20534;-51
2022/11/12 10:27:44;;;;;;;2.50;2.30;;;7.60;99.90;;;;;;5095216;28;20464;-51
2022/11/12 10:30:18;;;;;;;4.20;3.10;;;7.60;99.90;;;;;;5095033;28;20444;-50
2022/11/12 10:32:47;;;;;;;4.10;3.00;;;7.60;99.90;;;;;;5094700;28;20881;-52
2022/11/12 10:35:17;;;;;;;4.33;2.80;;;7.70;99.90;;;;;;5094791;28;20515;-50
2022/11/12 10:37:49;;;;;;;50.20;12.90;;;7.80;99.90;;;;;;5094763;28;20444;-51
2022/11/12 10:40:29;;;;;;;133.97;28.70;;;7.80;99.90;;;;;;5095125;28;20467;-52
2022/11/12 10:42:59;;;;;;;6.10;3.63;;;7.80;99.90;;;;;;5094179;28;20443;-51
2022/11/12 10:45:28;;;;;;;5.77;3.53;;;7.90;99.90;;;;;;5093707;28;20527;-56
2022/11/12 10:47:55;;;;;;;4.30;3.90;;;7.90;99.90;;;;;;5094509;28;20992;-51
2022/11/12 10:50:25;;;;;;;4.73;4.33;;;7.90;99.90;;;;;;5093952;28;20538;-51
2022/11/12 10:53:01;;;;;;;54.30;16.63;;;7.90;99.90;;;;;;5094488;28;21033;-54
2022/11/12 10:55:30;;;;;;;39.08;12.77;;;8.60;99.90;;;;;;5096812;28;20917;-52
2022/11/12 10:58:04;;;;;;;13.83;4.70;;;9.40;99.90;;;;;;5096756;28;20296;-51
2022/11/12 11:00:34;;;;;;;94.47;26.93;;;9.40;99.90;;;;;;5096921;28;20499;-51
2022/11/12 11:03:04;;;;;;;69.13;17.77;;;9.40;99.90;;;;;;5097150;28;20470;-53
2022/11/12 11:05:34;;;;;;;31.03;9.77;;;9.90;99.90;;;;;;5097586;28;20517;-50
2022/11/12 11:08:02;;;;;;;7.80;4.50;;;9.80;99.90;;;;;;5097023;28;20536;-52
2022/11/12 11:10:31;;;;;;;5.20;3.47;;;10.00;99.90;;;;;;5097674;28;20761;-51
2022/11/12 11:13:10;;;;;;;6.33;4.60;;;10.10;99.90;;;;;;5097050;28;20483;-51
2022/11/12 11:15:39;;;;;;;31.60;8.50;;;9.90;99.90;;;;;;5097829;28;20475;-52
2022/11/12 11:18:10;;;;;;;37.57;9.33;;;10.10;99.90;;;;;;5095893;28;20491;-52
2022/11/12 11:20:44;;;;;;;58.67;24.03;;;10.50;99.90;;;;;;5096405;28;20493;-50
2022/11/12 11:23:20;;;;;;;39.70;15.80;;;10.20;99.90;;;;;;5093094;28;20443;-51
2022/11/12 11:25:50;;;;;;;11.83;6.23;;;10.60;99.90;;;;;;5094033;28;21035;-51
2022/11/12 11:28:29;;;;;;;6.83;3.80;;;10.60;99.90;;;;;;5093535;28;20834;-51
2022/11/12 11:31:04;;;;;;;4.23;3.50;;;10.00;99.90;;;;;;5092722;28;20523;-52
2022/11/12 11:33:42;;;;;;;3.83;3.00;;;9.80;99.90;;;;;;5092358;28;20493;-53
2022/11/12 11:36:18;;;;;;;5.67;4.10;;;9.60;99.90;;;;;;5092656;28;20474;-52
2022/11/12 11:38:56;;;;;;;5.87;3.80;;;9.60;99.90;;;;;;5092001;28;20452;-52
2022/11/12 11:41:42;;;;;;;5.60;4.87;;;9.60;99.90;;;;;;5092707;28;20471;-53
2022/11/12 11:44:21;;;;;;;5.60;4.27;;;9.60;99.90;;;;;;5092169;28;20461;-52
2022/11/12 11:47:02;;;;;;;4.53;4.13;;;9.60;99.90;;;;;;5092059;28;20478;-52
2022/11/12 11:49:48;;;;;;;5.67;4.33;;;9.50;99.90;;;;;;5091963;28;20574;-52
2022/11/12 11:52:37;;;;;;;8.03;6.40;;;9.50;99.90;;;;;;5092154;28;20449;-52
2022/11/12 11:55:20;;;;;;;7.70;4.83;;;9.40;99.90;;;;;;5072659;28;20949;-52
2022/11/12 11:57:59;;;;;;;5.87;4.00;;;9.40;99.90;;;;;;5071475;28;20519;-52
2022/11/12 12:00:34;;;;;;;13.00;6.23;;;9.30;99.90;;;;;;5071766;28;20880;-52
2022/11/12 12:03:17;;;;;;;10.30;4.80;;;9.30;99.90;;;;;;5071201;28;20937;-52
2022/11/12 12:05:50;;;;;;;4.20;3.80;;;9.20;99.90;;;;;;5070999;28;20437;-52
2022/11/12 12:08:25;;;;;;;4.30;3.40;;;9.20;99.90;;;;;;5071039;28;20476;-52
2022/11/12 12:11:00;;;;;;;3.53;3.13;;;9.20;99.90;;;;;;5071533;28;20440;-52
2022/11/12 12:13:34;;;;;;;4.00;3.60;;;9.20;99.90;;;;;;5070968;28;20479;-52
2022/11/12 12:16:29;;;;;;;3.83;3.20;;;9.20;99.90;;;;;;5071296;28;20446;-52
2022/11/12 12:19:06;;;;;;;24.50;7.67;;;9.20;99.90;;;;;;5071368;28;20559;-52
2022/11/12 12:21:37;;;;;;;5.97;4.00;;;9.30;99.90;;;;;;5071222;28;20531;-53
2022/11/12 12:24:12;;;;;;;5.60;4.03;;;9.30;99.90;;;;;;5070969;28;20444;-52
2022/11/12 12:26:45;;;;;;;4.10;3.43;;;9.30;99.90;;;;;;5071361;28;20478;-52
2022/11/12 12:29:16;;;;;;;6.60;4.37;;;9.40;99.90;;;;;;5071110;28;20480;-52
2022/11/12 12:31:48;;;;;;;8.10;4.70;;;9.30;99.90;;;;;;5071384;28;20464;-52
2022/11/12 12:34:21;;;;;;;4.87;3.63;;;9.30;99.90;;;;;;5071354;28;20533;-52
2022/11/12 12:36:51;;;;;;;6.83;4.77;;;9.30;99.90;;;;;;5071528;28;20525;-52
2022/11/12 12:39:22;;;;;;;8.43;4.60;;;9.40;99.90;;;;;;5070369;28;20547;-52
2022/11/12 12:41:55;;;;;;;10.60;6.67;;;9.30;99.90;;;;;;5071339;28;20437;-53
2022/11/12 12:44:58;;;;;;;45.30;33.03;;;9.30;99.90;;;;;;5070779;28;20579;-52
2022/11/12 12:47:12;;;;;;;11.77;8.23;;;9.30;99.90;;;;;;5070643;28;20440;-52
2022/11/12 12:49:41;;;;;;;5.90;4.30;;;9.20;99.90;;;;;;5071125;28;20483;-54
2022/11/12 12:52:12;;;;;;;5.23;4.23;;;9.40;99.90;;;;;;5071114;28;20779;-52
2022/11/12 12:54:56;;;;;;;7.07;4.63;;;9.40;99.90;;;;;;5071078;28;20524;-52
2022/11/12 12:57:29;;;;;;;4.80;4.40;;;9.40;99.90;;;;;;5071056;28;20444;-53
2022/11/12 13:00:29;;;;;;;4.03;3.63;;;9.50;99.90;;;;;;5070987;28;20443;-53
2022/11/12 13:02:57;;;;;;;10.67;4.73;;;9.50;99.90;;;;;;5070308;28;20527;-53
2022/11/12 13:05:28;;;;;;;5.40;4.83;;;9.60;99.90;;;;;;5070862;28;20447;-53
2022/11/12 13:07:58;;;;;;;4.67;3.07;;;9.60;99.90;;;;;;5070770;28;20849;-53
2022/11/12 13:10:50;;;;;;;3.10;2.80;;;9.60;99.90;;;;;;5070655;28;20744;-51
2022/11/12 13:13:29;;;;;;;2.97;2.60;;;9.50;99.90;;;;;;5050605;28;20221;-52
2022/11/12 13:15:58;;;;;;;3.10;2.80;;;9.50;99.90;;;;;;5070675;28;20441;-51
2022/11/12 13:18:57;;;;;;;4.27;2.77;;;9.40;99.90;;;;;;5070665;28;20553;-51
2022/11/12 13:21:25;;;;;;;3.13;2.83;;;9.50;99.90;;;;;;5070107;28;20523;-52
2022/11/12 13:24:09;;;;;;;3.37;3.07;;;9.50;99.90;;;;;;5069920;28;20447;-52
2022/11/12 13:26:56;;;;;;;4.30;2.97;;;9.60;99.90;;;;;;5069704;28;20445;-52
2022/11/12 13:29:44;;;;;;;17.57;5.80;;;9.70;99.90;;;;;;5069892;28;20480;-52
2022/11/12 13:32:33;;;;;;;9.40;4.53;;;9.60;99.90;;;;;;5070177;28;20519;-50